createdAt,value
2023-02-21T11:31:06.452Z,895.00
2023-02-21T11:32:06.444Z,884.00
2023-02-21T11:33:06.411Z,876.00
2023-02-21T11:34:06.377Z,876.00
2023-02-21T11:35:06.370Z,943.00
2023-02-21T11:36:06.321Z,945.00
2023-02-21T11:37:06.312Z,938.00
2023-02-21T11:38:06.309Z,1014.00
2023-02-21T11:39:06.269Z,1001.00
2023-02-21T11:40:06.264Z,925.00
2023-02-21T11:41:06.226Z,897.00
2023-02-21T11:42:06.215Z,838.00
2023-02-21T11:43:06.181Z,831.00
2023-02-21T11:44:06.185Z,819.00
2023-02-21T11:45:06.154Z,814.00
2023-02-21T11:46:06.340Z,813.00
2023-02-21T11:47:06.117Z,811.00
2023-02-21T11:48:06.097Z,837.00
2023-02-21T11:49:06.104Z,813.00
2023-02-21T11:50:06.053Z,807.00
2023-02-21T11:51:06.053Z,804.00
2023-02-21T11:52:06.041Z,787.00
2023-02-21T11:53:05.987Z,783.00
2023-02-21T11:54:05.959Z,775.00
2023-02-21T11:55:05.946Z,754.00
2023-02-21T11:56:05.948Z,752.00
2023-02-21T11:57:05.931Z,745.00
2023-02-21T11:58:05.874Z,741.00
2023-02-21T11:59:05.863Z,731.00
2023-02-21T12:00:05.817Z,728.00
2023-02-21T12:01:05.801Z,720.00
2023-02-21T12:02:05.768Z,719.00
2023-02-21T12:03:05.744Z,715.00
2023-02-21T12:04:05.717Z,710.00
2023-02-21T12:05:05.713Z,708.00
2023-02-21T12:06:05.697Z,708.00
2023-02-21T12:07:05.712Z,705.00
2023-02-21T12:08:06.473Z,699.00
2023-02-21T12:09:05.891Z,702.00
2023-02-21T12:10:05.629Z,704.00
2023-02-21T12:11:05.570Z,704.00
2023-02-21T12:12:05.963Z,704.00
2023-02-21T12:13:05.526Z,699.00
2023-02-21T12:14:05.506Z,699.00
2023-02-21T12:15:05.524Z,702.00
2023-02-21T12:16:05.468Z,701.00
2023-02-21T12:17:05.426Z,699.00
2023-02-21T12:18:05.393Z,696.00
2023-02-21T12:19:05.364Z,697.00
2023-02-21T12:20:05.335Z,696.00
2023-02-21T12:21:05.296Z,694.00
2023-02-21T12:22:05.265Z,691.00
2023-02-21T12:23:05.260Z,688.00
2023-02-21T12:24:05.218Z,689.00
2023-02-21T12:25:05.207Z,694.00
2023-02-21T12:26:05.187Z,693.00
2023-02-21T12:27:05.165Z,692.00
2023-02-21T12:28:05.228Z,694.00
2023-02-21T12:29:05.122Z,692.00
2023-02-21T12:30:05.201Z,691.00
2023-02-21T12:31:05.122Z,688.00
2023-02-21T12:32:05.109Z,686.00
2023-02-21T12:33:05.071Z,680.00
2023-02-21T12:34:05.012Z,677.00
2023-02-21T12:35:04.985Z,674.00
2023-02-21T12:36:04.987Z,672.00
2023-02-21T12:37:04.951Z,669.00
2023-02-21T12:38:04.915Z,667.00
2023-02-21T12:39:04.982Z,664.00
2023-02-21T12:40:04.857Z,662.00
2023-02-21T12:41:04.827Z,660.00
2023-02-21T12:42:04.788Z,657.00
2023-02-21T12:43:04.787Z,654.00
2023-02-21T14:27:01.949Z,511.00
2023-02-21T14:28:02.157Z,510.00
2023-02-21T14:29:01.884Z,508.00
2023-02-21T14:30:01.863Z,505.00
2023-02-21T14:31:01.813Z,504.00
2023-02-21T14:32:01.862Z,504.00
2023-02-21T14:33:01.760Z,503.00
2023-02-21T14:34:01.742Z,504.00
2023-02-21T14:35:01.718Z,502.00
2023-02-21T14:36:01.679Z,501.00
2023-02-21T14:37:01.655Z,500.00
2023-02-21T14:38:01.615Z,498.00
2023-02-21T14:39:01.585Z,498.00
2023-02-21T14:40:01.555Z,496.00
2023-02-21T14:41:01.561Z,495.00
2023-02-21T14:42:01.536Z,498.00
2023-02-21T14:43:01.473Z,499.00
2023-02-21T14:44:01.474Z,497.00
2023-02-21T14:45:01.440Z,494.00
2023-02-21T14:46:01.454Z,496.00
2023-02-21T14:47:01.373Z,496.00
2023-02-21T14:48:01.363Z,494.00
2023-02-21T14:49:01.329Z,493.00
2023-02-21T14:50:01.300Z,496.00
2023-02-21T14:51:01.272Z,493.00
2023-02-21T14:52:01.247Z,489.00
2023-02-21T14:53:01.239Z,488.00
2023-02-21T14:54:01.194Z,486.00
2023-02-21T14:55:01.178Z,486.00
2023-02-21T14:56:01.143Z,484.00
2023-02-21T14:57:01.149Z,483.00
2023-02-21T14:58:01.105Z,479.00
2023-02-21T14:59:01.080Z,479.00
2023-02-21T15:00:01.045Z,482.00
2023-02-21T15:01:01.073Z,481.00
2023-02-21T15:02:01.011Z,482.00
2023-02-21T15:03:00.957Z,483.00
2023-02-21T15:04:00.970Z,480.00
2023-02-21T15:05:00.893Z,479.00
2023-02-21T15:06:03.421Z,475.00
2023-02-21T15:07:00.846Z,474.00
2023-02-21T15:08:00.818Z,475.00
2023-02-21T15:09:00.800Z,474.00
2023-02-21T15:10:00.778Z,474.00
2023-02-21T15:11:00.756Z,473.00
2023-02-21T15:12:00.725Z,475.00
2023-02-21T15:13:00.731Z,477.00
2023-02-21T15:14:00.696Z,475.00
2023-02-21T15:15:00.660Z,475.00
2023-02-21T15:16:00.621Z,474.00
2023-02-21T15:17:00.600Z,474.00
2023-02-21T15:18:00.567Z,472.00
2023-02-21T15:19:00.571Z,470.00
2023-02-21T15:20:00.518Z,472.00
2023-02-21T15:21:00.493Z,473.00
2023-02-21T15:22:00.473Z,473.00
2023-02-21T15:23:00.424Z,468.00
2023-02-21T15:24:00.405Z,469.00
2023-02-21T15:25:00.399Z,467.00
2023-02-21T15:26:00.366Z,466.00
2023-02-21T15:27:00.324Z,466.00
2023-02-21T15:28:00.294Z,469.00
2023-02-21T15:29:00.263Z,469.00
2023-02-21T15:30:00.238Z,472.00
2023-02-21T15:31:00.448Z,473.00
2023-02-21T15:32:00.306Z,473.00
2023-02-21T15:33:00.171Z,473.00
2023-02-21T15:34:00.138Z,473.00
2023-02-21T15:35:00.104Z,472.00
2023-02-21T15:36:00.102Z,474.00
2023-02-21T15:37:00.040Z,472.00
2023-02-21T15:38:00.032Z,471.00
2023-02-21T15:38:59.988Z,471.00
2023-02-21T15:39:59.966Z,471.00
2023-02-21T15:40:59.949Z,472.00
2023-02-21T15:41:59.975Z,473.00
2023-02-21T15:42:59.909Z,473.00
2023-02-21T15:43:59.885Z,470.00
2023-02-21T15:44:59.858Z,467.00
2023-02-21T15:45:59.844Z,466.00
2023-02-21T15:46:59.809Z,465.00
2023-02-21T15:47:59.812Z,465.00
2023-02-21T15:48:59.754Z,465.00
2023-02-21T15:49:59.726Z,464.00
2023-02-21T15:50:59.715Z,466.00
2023-02-21T15:51:59.681Z,463.00
2023-02-21T15:52:59.649Z,462.00
2023-02-21T15:53:59.621Z,461.00
2023-02-21T15:54:59.606Z,462.00
2023-02-21T15:55:59.585Z,460.00
2023-02-21T15:56:59.555Z,459.00
2023-02-21T15:57:59.525Z,457.00
2023-02-21T15:58:59.493Z,457.00
2023-02-21T15:59:59.465Z,454.00
2023-02-21T16:00:59.457Z,451.00
2023-02-21T16:01:59.423Z,452.00
2023-02-21T16:02:59.411Z,451.00
2023-02-21T16:03:59.374Z,454.00
2023-02-21T16:04:59.359Z,453.00
2023-02-21T16:05:59.330Z,454.00
2023-02-21T16:06:59.318Z,454.00
2023-02-21T16:07:59.292Z,454.00
2023-02-21T16:08:59.276Z,453.00
2023-02-21T16:09:59.260Z,452.00
2023-02-21T16:10:59.235Z,450.00
2023-02-21T16:11:59.211Z,451.00
2023-02-21T16:12:59.180Z,453.00
2023-02-21T16:13:59.160Z,452.00
2023-02-21T16:14:59.154Z,453.00
2023-02-21T16:15:59.143Z,451.00
2023-02-21T16:16:59.073Z,451.00
2023-02-21T16:17:59.046Z,450.00
2023-02-21T16:18:59.023Z,448.00
2023-02-21T16:19:59.065Z,443.00
2023-02-21T16:20:58.977Z,443.00
2023-02-21T16:21:58.962Z,442.00
2023-02-21T16:23:07.661Z,444.00
2023-02-21T16:24:58.875Z,441.00
2023-02-21T16:25:58.857Z,441.00
2023-02-21T16:26:58.826Z,440.00
2023-02-21T16:27:58.787Z,439.00
2023-02-21T16:28:58.759Z,439.00
2023-02-21T16:29:58.750Z,441.00
2023-02-21T16:30:58.729Z,440.00
2023-02-21T16:31:58.728Z,440.00
2023-02-21T16:32:58.659Z,441.00
2023-02-21T16:33:58.636Z,441.00
2023-02-21T16:34:58.593Z,440.00
2023-02-21T16:35:58.564Z,440.00
2023-02-21T16:36:58.557Z,440.00
2023-02-21T16:37:58.525Z,440.00
2023-02-21T16:38:58.500Z,441.00
2023-02-21T16:39:58.465Z,443.00
2023-02-21T16:40:58.434Z,444.00
2023-02-21T16:41:58.414Z,443.00
2023-02-21T16:42:58.407Z,443.00
2023-02-21T16:43:58.385Z,443.00
2023-02-21T16:44:58.375Z,442.00
2023-02-21T16:45:58.377Z,441.00
2023-02-21T16:46:58.324Z,439.00
2023-02-21T16:47:58.275Z,438.00
2023-02-21T16:48:58.249Z,439.00
2023-02-21T16:49:58.260Z,440.00
2023-02-21T16:50:58.202Z,440.00
2023-02-21T16:51:58.172Z,438.00
2023-02-21T16:52:59.172Z,438.00
2023-02-21T16:53:58.118Z,438.00
2023-02-21T16:54:58.105Z,437.00
2023-02-21T16:55:58.085Z,439.00
2023-02-21T16:56:58.045Z,436.00
2023-02-21T16:57:58.018Z,437.00
2023-02-21T16:58:58.002Z,434.00
2023-02-21T16:59:57.992Z,435.00
2023-02-21T17:00:57.924Z,434.00
2023-02-21T17:01:57.955Z,433.00
2023-02-21T17:02:57.909Z,432.00
2023-02-21T17:03:57.845Z,434.00
2023-02-21T17:04:57.822Z,434.00
2023-02-21T17:05:57.800Z,430.00
2023-02-21T17:06:57.767Z,429.00
2023-02-21T17:07:57.739Z,431.00
2023-02-21T17:08:57.701Z,432.00
2023-02-21T17:09:57.673Z,432.00
2023-02-21T17:10:57.655Z,428.00
2023-02-21T17:11:57.635Z,429.00
2023-02-21T17:12:57.600Z,428.00
2023-02-21T17:13:57.579Z,425.00
2023-02-21T17:14:57.561Z,424.00
2023-02-21T17:15:57.570Z,422.00
2023-02-21T17:16:57.482Z,423.00
2023-02-21T17:17:57.478Z,430.00
2023-02-21T17:18:57.435Z,430.00
2023-02-21T17:19:57.427Z,427.00
2023-02-21T17:20:57.371Z,426.00
2023-02-21T17:21:57.339Z,429.00
2023-02-21T17:22:57.310Z,429.00
2023-02-21T17:23:57.281Z,430.00
2023-02-21T17:24:57.260Z,426.00
2023-02-21T17:25:57.232Z,422.00
2023-02-21T17:26:57.200Z,421.00
2023-02-21T17:27:57.178Z,422.00
2023-02-21T17:28:57.158Z,424.00
2023-02-21T17:29:57.206Z,427.00
2023-02-21T17:30:57.157Z,427.00
2023-02-21T17:31:57.075Z,425.00
2023-02-21T17:32:57.046Z,425.00
2023-02-21T17:33:57.018Z,425.00
2023-02-21T17:34:57.005Z,424.00
2023-02-21T17:35:56.961Z,423.00
2023-02-21T17:36:56.952Z,424.00
2023-02-21T17:37:56.913Z,425.00
2023-02-21T17:38:58.806Z,424.00
2023-02-21T17:39:56.865Z,425.00
2023-02-21T17:40:56.819Z,424.00
2023-02-21T17:41:56.802Z,424.00
2023-02-21T17:42:56.768Z,427.00
2023-02-21T17:43:56.743Z,426.00
2023-02-21T17:44:56.749Z,426.00
2023-02-21T17:45:56.695Z,423.00
2023-02-21T17:46:56.668Z,421.00
2023-02-21T17:47:56.649Z,423.00
2023-02-21T17:48:56.636Z,424.00
2023-02-21T17:49:56.598Z,425.00
2023-02-21T17:50:56.572Z,422.00
2023-02-21T17:51:56.573Z,421.00
2023-02-21T17:52:56.539Z,421.00
2023-02-21T17:53:56.523Z,421.00
2023-02-21T17:54:56.495Z,419.00
2023-02-21T17:55:56.488Z,419.00
2023-02-21T17:56:56.455Z,418.00
2023-02-21T17:57:56.446Z,416.00
2023-02-21T17:58:56.443Z,415.00
2023-02-21T17:59:56.382Z,414.00
2023-02-21T18:00:56.350Z,412.00
2023-02-21T18:01:56.372Z,410.00
2023-02-21T18:02:56.301Z,408.00
2023-02-21T18:03:56.306Z,407.00
2023-02-21T18:04:56.340Z,407.00
2023-02-21T18:05:56.235Z,409.00
2023-02-21T18:06:56.213Z,410.00
2023-02-21T18:07:56.191Z,410.00
2023-02-21T18:08:56.168Z,412.00
2023-02-21T18:09:56.148Z,412.00
2023-02-21T18:10:56.116Z,411.00
2023-02-21T18:11:56.098Z,412.00
2023-02-21T18:12:56.058Z,412.00
2023-02-21T18:13:56.047Z,411.00
2023-02-21T18:14:56.023Z,414.00
2023-02-21T18:15:56.035Z,412.00
2023-02-21T18:16:55.967Z,414.00
2023-02-21T18:17:55.951Z,411.00
2023-02-21T18:18:55.942Z,412.00
2023-02-21T18:19:55.917Z,410.00
2023-02-21T18:20:55.925Z,410.00
2023-02-21T18:21:55.876Z,411.00
2023-02-21T18:22:55.855Z,413.00
2023-02-21T18:23:55.842Z,411.00
2023-02-21T18:24:55.808Z,411.00
2023-02-21T18:25:55.793Z,411.00
2023-02-21T18:26:55.758Z,410.00
2023-02-21T18:27:55.741Z,410.00
2023-02-21T18:28:55.711Z,408.00
2023-02-21T18:29:55.704Z,406.00
2023-02-21T18:30:55.669Z,405.00
2023-02-21T18:31:55.772Z,404.00
2023-02-21T18:32:55.631Z,402.00
2023-02-21T18:33:55.615Z,405.00
2023-02-21T18:34:55.591Z,403.00
2023-02-21T18:35:55.572Z,403.00
2023-02-21T18:36:55.548Z,402.00
2023-02-21T18:37:55.524Z,402.00
2023-02-21T18:38:55.580Z,400.00
2023-02-21T18:39:55.495Z,399.00
2023-02-21T18:40:55.461Z,400.00
2023-02-21T18:41:55.445Z,401.00
2023-02-21T18:42:55.451Z,401.00
2023-02-21T18:43:55.442Z,401.00
2023-02-21T18:44:55.393Z,399.00
2023-02-21T18:45:55.369Z,401.00
2023-02-21T18:46:55.528Z,400.00
2023-02-21T18:47:55.330Z,398.00
2023-02-21T18:48:55.303Z,397.00
2023-02-21T18:49:56.494Z,396.00
2023-02-21T18:50:55.266Z,396.00
2023-02-21T18:51:55.241Z,396.00
2023-02-21T18:52:55.227Z,396.00
2023-02-21T18:53:55.211Z,396.00
2023-02-21T18:54:55.195Z,398.00
2023-02-21T18:55:55.181Z,398.00
2023-02-21T18:56:55.147Z,397.00
2023-02-21T18:57:55.144Z,395.00
2023-02-21T18:58:55.110Z,395.00
2023-02-21T18:59:55.096Z,395.00
2023-02-21T19:00:55.086Z,394.00
2023-02-21T19:01:55.068Z,396.00
2023-02-21T19:02:55.028Z,397.00
2023-02-21T19:03:55.082Z,396.00
2023-02-21T19:04:54.999Z,395.00
2023-02-21T19:05:54.971Z,398.00
2023-02-21T19:06:54.941Z,397.00
2023-02-21T19:07:54.918Z,394.00
2023-02-21T19:08:54.886Z,392.00
2023-02-21T19:09:54.882Z,394.00
2023-02-21T19:10:54.868Z,393.00
2023-02-21T19:11:54.847Z,395.00
2023-02-21T19:12:54.822Z,396.00
2023-02-21T19:13:54.803Z,397.00
2023-02-21T19:14:54.801Z,398.00
2023-02-21T19:15:54.790Z,396.00
2023-02-21T19:16:54.748Z,394.00
2023-02-21T19:17:54.733Z,393.00
2023-02-21T19:18:54.702Z,390.00
2023-02-21T19:19:54.706Z,392.00
2023-02-21T19:20:54.674Z,393.00
2023-02-21T19:21:54.637Z,392.00
2023-02-21T19:22:54.601Z,393.00
2023-02-21T19:23:54.585Z,395.00
2023-02-21T19:24:54.573Z,394.00
2023-02-21T19:25:54.554Z,394.00
2023-02-21T19:26:54.551Z,394.00
2023-02-21T19:27:54.510Z,395.00
2023-02-21T19:28:54.488Z,396.00
2023-02-21T19:29:54.481Z,396.00
2023-02-21T19:30:54.472Z,399.00
2023-02-21T19:31:54.569Z,401.00
2023-02-21T19:32:54.427Z,400.00
2023-02-21T19:33:54.405Z,399.00
2023-02-21T19:34:54.380Z,398.00
2023-02-21T19:35:54.383Z,394.00
2023-02-21T19:36:54.341Z,393.00
2023-02-21T19:37:54.323Z,393.00
2023-02-21T19:38:54.298Z,395.00
2023-02-21T19:39:54.293Z,394.00
2023-02-21T19:40:54.257Z,394.00
2023-02-21T19:41:54.243Z,391.00
2023-02-21T19:42:54.217Z,389.00
2023-02-21T19:43:54.191Z,388.00
2023-02-21T19:44:54.168Z,387.00
2023-02-21T19:45:54.162Z,389.00
2023-02-21T19:46:54.133Z,394.00
2023-02-21T19:47:54.109Z,396.00
2023-02-21T19:48:54.105Z,398.00
2023-02-21T19:49:54.072Z,397.00
2023-02-21T19:50:54.058Z,396.00
2023-02-21T19:51:54.054Z,398.00
2023-02-21T19:52:54.009Z,397.00
2023-02-21T19:53:54.043Z,399.00
2023-02-21T19:54:53.980Z,402.00
2023-02-21T19:55:53.962Z,401.00
2023-02-21T19:56:53.946Z,401.00
2023-02-21T19:57:53.928Z,399.00
2023-02-21T19:58:53.909Z,398.00
2023-02-21T19:59:53.891Z,400.00
2023-02-21T20:00:53.888Z,402.00
2023-02-21T20:01:53.862Z,402.00
2023-02-21T20:02:53.854Z,402.00
2023-02-21T20:03:53.914Z,402.00
2023-02-21T20:04:53.823Z,402.00
2023-02-21T20:05:53.803Z,403.00
2023-02-21T20:06:53.798Z,399.00
2023-02-21T20:07:53.763Z,400.00
2023-02-21T20:08:53.758Z,400.00
2023-02-21T20:09:53.718Z,399.00
2023-02-21T20:10:53.706Z,394.00
2023-02-21T20:11:53.709Z,392.00
2023-02-21T20:12:53.674Z,389.00
2023-02-21T20:13:53.685Z,386.00
2023-02-21T20:14:53.664Z,387.00
2023-02-21T20:15:53.639Z,387.00
2023-02-21T20:16:53.664Z,389.00
2023-02-21T20:17:53.600Z,387.00
2023-02-21T20:18:53.577Z,390.00
2023-02-21T20:19:53.550Z,390.00
2023-02-21T20:20:53.535Z,389.00
2023-02-21T20:21:53.533Z,389.00
2023-02-21T20:22:53.500Z,390.00
2023-02-21T20:23:53.480Z,390.00
2023-02-21T20:24:53.468Z,391.00
2023-02-21T20:25:53.449Z,394.00
2023-02-21T20:26:53.424Z,395.00
2023-02-21T20:27:53.423Z,393.00
2023-02-21T20:28:53.392Z,392.00
2023-02-21T20:29:53.364Z,390.00
2023-02-21T20:30:53.473Z,391.00
2023-02-21T20:31:53.351Z,388.00
2023-02-21T20:32:53.331Z,387.00
2023-02-21T20:33:53.301Z,387.00
2023-02-21T20:34:53.301Z,386.00
2023-02-21T20:35:53.265Z,388.00
2023-02-21T20:36:53.247Z,394.00
2023-02-21T20:37:53.241Z,396.00
2023-02-21T20:38:53.217Z,395.00
2023-02-21T20:39:53.205Z,393.00
2023-02-21T20:40:53.177Z,391.00
2023-02-21T20:41:53.164Z,391.00
2023-02-21T20:42:53.149Z,391.00
2023-02-21T20:43:53.127Z,390.00
2023-02-21T20:44:53.122Z,389.00
2023-02-21T20:45:53.134Z,389.00
2023-02-21T20:46:53.078Z,389.00
2023-02-21T20:47:53.051Z,388.00
2023-02-21T20:48:53.035Z,392.00
2023-02-21T20:49:53.010Z,393.00
2023-02-21T20:50:53.000Z,392.00
2023-02-21T20:51:52.988Z,389.00
2023-02-21T20:52:52.975Z,392.00
2023-02-21T20:53:52.950Z,393.00
2023-02-21T20:54:52.949Z,395.00
2023-02-21T20:55:52.933Z,393.00
2023-02-21T20:56:52.928Z,393.00
2023-02-21T20:57:52.894Z,393.00
2023-02-21T20:58:52.880Z,392.00
2023-02-21T20:59:52.869Z,392.00
2023-02-21T21:00:52.860Z,393.00
2023-02-21T21:01:52.862Z,394.00
2023-02-21T21:02:52.843Z,393.00
2023-02-21T21:03:52.821Z,392.00
2023-02-21T21:04:52.793Z,390.00
2023-02-21T21:05:52.795Z,390.00
2023-02-21T21:06:52.767Z,389.00
2023-02-21T21:07:52.782Z,390.00
2023-02-21T21:08:52.730Z,389.00
2023-02-21T21:09:52.713Z,389.00
2023-02-21T21:10:52.789Z,387.00
2023-02-21T21:11:52.674Z,390.00
2023-02-21T21:12:52.649Z,387.00
2023-02-21T21:13:52.639Z,391.00
2023-02-21T21:14:52.631Z,390.00
2023-02-21T21:15:52.633Z,387.00
2023-02-21T21:16:52.630Z,388.00
2023-02-21T21:17:52.582Z,386.00
2023-02-21T21:18:52.559Z,385.00
2023-02-21T21:19:52.546Z,382.00
2023-02-21T21:20:52.531Z,381.00
2023-02-21T21:21:52.517Z,380.00
2023-02-21T21:22:52.528Z,383.00
2023-02-21T21:23:52.497Z,380.00
2023-02-21T21:24:52.492Z,378.00
2023-02-21T21:25:52.476Z,376.00
2023-02-21T21:26:52.498Z,375.00
2023-02-21T21:27:52.438Z,376.00
2023-02-21T21:28:52.420Z,374.00
2023-02-21T21:29:52.385Z,374.00
2023-02-21T21:30:52.367Z,374.00
2023-02-21T21:31:52.391Z,377.00
2023-02-21T21:32:52.343Z,376.00
2023-02-21T21:33:52.331Z,375.00
2023-02-21T21:34:52.298Z,376.00
2023-02-21T21:35:52.291Z,379.00
2023-02-21T21:36:52.266Z,379.00
2023-02-21T21:37:52.244Z,377.00
2023-02-21T21:38:52.238Z,377.00
2023-02-21T21:39:52.208Z,379.00
2023-02-21T21:40:52.188Z,379.00
2023-02-21T21:41:52.168Z,379.00
2023-02-21T21:42:52.165Z,376.00
2023-02-21T21:43:52.140Z,377.00
2023-02-21T21:44:52.116Z,378.00
2023-02-21T21:45:52.122Z,376.00
2023-02-21T21:46:52.072Z,378.00
2023-02-21T21:47:52.043Z,382.00
2023-02-21T21:48:52.044Z,383.00
2023-02-21T21:49:52.020Z,381.00
2023-02-21T21:50:52.010Z,382.00
2023-02-21T21:51:51.989Z,381.00
2023-02-21T21:52:51.961Z,378.00
2023-02-21T21:53:51.952Z,377.00
2023-02-21T21:54:51.928Z,375.00
2023-02-21T21:55:51.896Z,375.00
2023-02-21T21:56:51.881Z,372.00
2023-02-21T21:57:51.858Z,374.00
2023-02-21T21:58:51.861Z,374.00
2023-02-21T21:59:51.845Z,374.00
2023-02-21T22:00:51.865Z,372.00
2023-02-21T22:01:51.865Z,374.00
2023-02-21T22:02:51.850Z,373.00
2023-02-21T22:03:51.777Z,370.00
2023-02-21T22:04:51.758Z,369.00
2023-02-21T22:05:51.733Z,370.00
2023-02-21T22:06:51.732Z,370.00
2023-02-21T22:07:51.699Z,369.00
2023-02-21T22:08:51.697Z,370.00
2023-02-21T22:09:51.673Z,370.00
2023-02-21T22:10:51.682Z,370.00
2023-02-21T22:11:51.653Z,368.00
2023-02-21T22:12:51.635Z,368.00
2023-02-21T22:13:51.617Z,365.00
2023-02-21T22:14:51.604Z,360.00
2023-02-21T22:15:51.601Z,360.00
2023-02-21T22:16:51.555Z,362.00
2023-02-21T22:17:51.546Z,360.00
2023-02-21T22:18:51.520Z,360.00
2023-02-21T22:19:51.517Z,360.00
2023-02-21T22:20:51.487Z,361.00
2023-02-21T22:21:51.477Z,363.00
2023-02-21T22:22:51.456Z,364.00
2023-02-21T22:23:51.449Z,363.00
2023-02-21T22:24:51.428Z,362.00
2023-02-21T22:25:51.429Z,363.00
2023-02-21T22:26:51.399Z,361.00
2023-02-21T22:27:51.384Z,363.00
2023-02-21T22:28:51.386Z,366.00
2023-02-21T22:29:51.360Z,363.00
2023-02-21T22:30:51.395Z,365.00
2023-02-21T22:31:52.457Z,366.00
2023-02-21T22:32:51.326Z,368.00
2023-02-21T22:33:51.319Z,370.00
2023-02-21T22:34:51.306Z,369.00
2023-02-21T22:35:51.293Z,369.00
2023-02-21T22:36:51.290Z,368.00
2023-02-21T22:37:51.281Z,367.00
2023-02-21T22:38:51.265Z,366.00
2023-02-21T22:39:51.240Z,367.00
2023-02-21T22:40:51.231Z,367.00
2023-02-21T22:41:51.224Z,367.00
2023-02-21T22:42:51.189Z,367.00
2023-02-21T22:43:51.169Z,368.00
2023-02-21T22:44:51.178Z,368.00
2023-02-21T22:45:51.138Z,367.00
2023-02-21T22:46:51.189Z,367.00
2023-02-21T22:47:51.107Z,365.00
2023-02-21T22:48:51.108Z,363.00
2023-02-21T22:49:51.082Z,359.00
2023-02-21T22:50:51.073Z,361.00
2023-02-21T22:51:51.095Z,358.00
2023-02-21T22:52:51.048Z,359.00
2023-02-21T22:53:51.029Z,358.00
2023-02-21T22:54:51.011Z,360.00
2023-02-21T22:55:52.465Z,360.00
2023-02-21T22:56:51.482Z,358.00
2023-02-21T22:57:50.961Z,356.00
2023-02-21T22:58:50.934Z,358.00
2023-02-21T22:59:50.916Z,356.00
2023-02-21T23:00:50.922Z,357.00
2023-02-21T23:01:50.914Z,358.00
2023-02-21T23:02:50.931Z,358.00
2023-02-21T23:03:50.859Z,359.00
2023-02-21T23:04:50.870Z,357.00
2023-02-21T23:05:50.843Z,355.00
2023-02-21T23:06:50.918Z,352.00
2023-02-21T23:07:50.829Z,353.00
2023-02-21T23:08:50.825Z,353.00
2023-02-21T23:09:50.813Z,352.00
2023-02-21T23:10:50.798Z,353.00
2023-02-21T23:11:50.786Z,353.00
2023-02-21T23:12:50.773Z,354.00
2023-02-21T23:13:50.764Z,358.00
2023-02-21T23:14:50.767Z,357.00
2023-02-21T23:15:50.759Z,356.00
2023-02-21T23:16:50.714Z,358.00
2023-02-21T23:17:50.713Z,357.00
2023-02-21T23:18:50.690Z,357.00
2023-02-21T23:19:50.690Z,358.00
2023-02-21T23:20:50.674Z,359.00
2023-02-21T23:21:50.661Z,358.00
2023-02-21T23:22:50.649Z,357.00
2023-02-21T23:23:50.646Z,355.00
2023-02-21T23:24:50.633Z,354.00
2023-02-21T23:25:50.654Z,353.00
2023-02-21T23:26:50.637Z,354.00
2023-02-21T23:27:50.607Z,354.00
2023-02-21T23:28:50.615Z,357.00
2023-02-21T23:29:50.587Z,360.00
2023-02-21T23:30:50.588Z,361.00
2023-02-21T23:31:50.650Z,359.00
2023-02-21T23:32:50.566Z,358.00
2023-02-21T23:33:50.558Z,361.00
2023-02-21T23:34:50.561Z,360.00
2023-02-21T23:35:50.555Z,360.00
2023-02-21T23:36:50.564Z,362.00
2023-02-21T23:37:50.538Z,361.00
2023-02-21T23:38:50.532Z,358.00
2023-02-21T23:39:50.524Z,359.00
2023-02-21T23:40:50.514Z,357.00
2023-02-21T23:41:50.507Z,358.00
2023-02-21T23:42:50.499Z,359.00
2023-02-21T23:43:50.480Z,361.00
2023-02-21T23:44:50.475Z,361.00
2023-02-21T23:45:50.465Z,363.00
2023-02-21T23:46:50.469Z,363.00
2023-02-21T23:47:50.437Z,363.00
2023-02-21T23:48:50.428Z,362.00
2023-02-21T23:49:50.424Z,362.00
2023-02-21T23:50:50.417Z,360.00
2023-02-21T23:51:50.390Z,358.00
2023-02-21T23:52:50.382Z,354.00
2023-02-21T23:53:50.361Z,356.00
2023-02-21T23:54:50.353Z,356.00
2023-02-21T23:55:50.344Z,355.00
2023-02-21T23:56:50.343Z,357.00
2023-02-21T23:57:50.320Z,356.00
2023-02-21T23:58:50.311Z,354.00
2023-02-21T23:59:50.302Z,354.00
